createdAt,value
2018-09-20T00:01:28.126Z,82.41
2018-09-20T00:02:28.123Z,82.27
2018-09-20T00:03:28.127Z,82.31
2018-09-20T00:04:28.122Z,82.17
2018-09-20T00:05:28.114Z,82.60
2018-09-20T00:06:28.113Z,82.41
2018-09-20T00:07:28.119Z,81.79
2018-09-20T00:08:28.114Z,82.12
2018-09-20T00:09:28.107Z,81.83
2018-09-20T00:10:28.106Z,81.50
2018-09-20T00:11:28.105Z,81.73
2018-09-20T00:12:28.102Z,81.88
2018-09-20T00:13:28.104Z,82.70
2018-09-20T00:14:28.102Z,82.70
2018-09-20T00:15:28.101Z,81.54
2018-09-20T00:16:28.100Z,82.31
2018-09-20T00:17:28.092Z,82.27
2018-09-20T00:18:28.091Z,82.12
2018-09-20T00:19:28.089Z,82.41
2018-09-20T00:20:28.088Z,82.85
2018-09-20T00:21:28.089Z,82.85
2018-09-20T00:22:28.087Z,82.85
2018-09-20T00:23:28.082Z,83.14
2018-09-20T00:24:28.079Z,83.04
2018-09-20T00:25:28.082Z,83.14
2018-09-20T00:26:28.080Z,82.85
2018-09-20T00:27:28.080Z,83.04
2018-09-20T00:28:28.078Z,83.14
2018-09-20T00:29:28.070Z,82.94
2018-09-20T00:30:28.069Z,82.37
2018-09-20T00:31:28.067Z,82.85
2018-09-20T00:32:28.069Z,83.14
2018-09-20T00:33:28.068Z,83.72
2018-09-20T00:34:28.065Z,83.14
2018-09-20T00:35:28.063Z,83.14
2018-09-20T00:36:28.062Z,83.52
2018-09-20T00:37:28.054Z,83.72
2018-09-20T00:38:28.053Z,83.52
2018-09-20T00:39:28.056Z,83.04
2018-09-20T00:40:28.054Z,83.52
2018-09-20T00:41:28.048Z,83.52
2018-09-20T00:42:28.046Z,83.42
2018-09-20T00:43:28.044Z,83.19
2018-09-20T00:44:28.042Z,83.62
2018-09-20T00:45:28.044Z,83.23
2018-09-20T00:46:28.043Z,83.29
2018-09-20T00:47:28.040Z,83.23
2018-09-20T00:48:28.038Z,83.23
2018-09-20T00:49:28.032Z,83.23
2018-09-20T00:50:28.034Z,83.62
2018-09-20T00:51:28.029Z,83.14
2018-09-20T00:52:28.026Z,83.42
2018-09-20T00:53:28.028Z,83.62
2018-09-20T00:54:28.026Z,83.19
2018-09-20T00:55:28.019Z,83.67
2018-09-20T00:56:28.017Z,83.42
2018-09-20T00:57:28.020Z,83.67
2018-09-20T00:58:28.018Z,83.52
2018-09-20T00:59:28.017Z,84.10
2018-09-20T01:00:28.017Z,83.58
2018-09-20T01:01:28.006Z,83.48
2018-09-20T01:02:28.005Z,83.86
2018-09-20T01:03:28.003Z,83.86
2018-09-20T01:04:28.002Z,83.39
2018-09-20T01:05:28.003Z,83.96
2018-09-20T01:06:28.002Z,84.25
2018-09-20T01:07:27.999Z,84.73
2018-09-20T01:08:27.998Z,84.30
2018-09-20T01:09:27.990Z,84.69
2018-09-20T01:10:27.988Z,84.78
2018-09-20T01:11:27.991Z,85.07
2018-09-20T01:12:27.988Z,85.46
2018-09-20T01:13:27.981Z,85.46
2018-09-20T01:14:27.980Z,85.80
2018-09-20T01:15:27.977Z,85.84
2018-09-20T01:16:27.974Z,85.22
2018-09-20T01:17:27.977Z,85.41
2018-09-20T01:18:27.977Z,86.18
2018-09-20T01:19:27.972Z,86.09
2018-09-20T01:20:27.971Z,86.85
2018-09-20T01:21:27.963Z,86.38
2018-09-20T01:22:27.960Z,86.47
2018-09-20T01:23:27.959Z,86.28
2018-09-20T01:24:27.956Z,86.57
2018-09-20T01:25:27.958Z,86.95
2018-09-20T01:26:27.957Z,87.15
2018-09-20T01:27:27.949Z,87.24
2018-09-20T01:28:27.947Z,87.05
2018-09-20T01:29:27.949Z,86.95
2018-09-20T01:30:27.946Z,87.43
2018-09-20T01:31:27.944Z,87.53
2018-09-20T01:32:27.941Z,87.68
2018-09-20T01:33:27.934Z,88.06
2018-09-20T01:34:27.932Z,87.39
2018-09-20T01:35:27.945Z,87.68
2018-09-20T01:36:27.934Z,88.45
2018-09-20T01:37:27.928Z,87.49
2018-09-20T01:38:27.928Z,87.49
2018-09-20T01:39:27.923Z,88.16
2018-09-20T01:40:27.921Z,88.25
2018-09-20T01:41:27.913Z,88.06
2018-09-20T01:42:27.910Z,88.16
2018-09-20T01:43:27.913Z,88.64
2018-09-20T01:44:27.910Z,88.35
2018-09-20T01:45:27.905Z,88.25
2018-09-20T01:46:27.900Z,88.06
2018-09-20T01:47:27.898Z,88.45
2018-09-20T01:48:27.894Z,88.16
2018-09-20T01:49:27.896Z,88.06
2018-09-20T01:50:27.895Z,87.87
2018-09-20T01:51:27.899Z,88.25
2018-09-20T01:52:27.888Z,88.25
2018-09-20T01:53:27.883Z,88.06
2018-09-20T01:54:27.879Z,88.06
2018-09-20T01:55:27.875Z,88.73
2018-09-20T01:56:27.876Z,88.16
2018-09-20T01:57:27.877Z,88.25
2018-09-20T01:58:27.872Z,88.35
2018-09-20T01:59:27.865Z,88.35
2018-09-20T02:00:27.863Z,88.16
2018-09-20T02:01:27.865Z,88.10
2018-09-20T02:02:27.862Z,88.59
2018-09-20T02:03:27.858Z,87.43
2018-09-20T02:04:27.855Z,87.53
2018-09-20T02:05:27.849Z,87.43
2018-09-20T02:06:27.848Z,87.62
2018-09-20T02:07:27.843Z,87.34
2018-09-20T02:08:27.841Z,87.24
2018-09-20T02:09:27.841Z,87.15
2018-09-20T02:10:27.838Z,86.76
2018-09-20T02:11:27.836Z,86.85
2018-09-20T02:12:27.835Z,87.05
2018-09-20T02:13:27.827Z,87.05
2018-09-20T02:14:27.824Z,87.15
2018-09-20T02:15:27.832Z,86.76
2018-09-20T02:16:27.825Z,86.85
2018-09-20T02:17:27.815Z,86.38
2018-09-20T02:18:27.813Z,86.95
2018-09-20T02:19:27.811Z,86.38
2018-09-20T02:20:27.809Z,86.95
2018-09-20T02:21:27.817Z,86.85
2018-09-20T02:22:27.807Z,86.57
2018-09-20T02:23:27.807Z,86.66
2018-09-20T02:24:27.801Z,86.95
2018-09-20T02:25:27.796Z,86.95
2018-09-20T02:26:27.793Z,86.95
2018-09-20T02:27:27.791Z,86.76
2018-09-20T02:28:27.787Z,87.24
2018-09-20T02:29:27.789Z,87.34
2018-09-20T02:30:27.787Z,87.24
2018-09-20T02:31:27.780Z,86.95
2018-09-20T02:32:27.777Z,87.34
2018-09-20T02:33:27.778Z,87.24
2018-09-20T02:34:27.777Z,87.24
2018-09-20T02:35:27.773Z,87.24
2018-09-20T02:36:27.787Z,87.24
2018-09-20T02:37:27.763Z,87.24
2018-09-20T02:38:27.762Z,87.15
2018-09-20T02:39:27.759Z,87.05
2018-09-20T02:40:27.756Z,87.34
2018-09-20T02:41:27.759Z,87.92
2018-09-20T02:42:27.755Z,87.43
2018-09-20T02:43:27.753Z,87.43
2018-09-20T02:44:27.752Z,87.92
2018-09-20T02:45:27.741Z,87.72
2018-09-20T02:46:27.743Z,87.53
2018-09-20T02:47:27.747Z,87.62
2018-09-20T02:48:27.740Z,87.53
2018-09-20T02:49:27.731Z,87.53
2018-09-20T02:50:27.728Z,87.62
2018-09-20T02:51:27.726Z,87.82
2018-09-20T02:52:27.724Z,87.72
2018-09-20T02:53:27.726Z,87.82
2018-09-20T02:54:27.722Z,88.49
2018-09-20T02:55:27.720Z,87.82
2018-09-20T02:56:27.716Z,87.72
2018-09-20T02:57:27.711Z,87.62
2018-09-20T02:58:27.706Z,87.24
2018-09-20T02:59:27.704Z,87.62
2018-09-20T03:00:27.701Z,87.82
2018-09-20T03:01:27.704Z,87.34
2018-09-20T03:02:27.704Z,87.62
2018-09-20T03:03:27.693Z,87.72
2018-09-20T03:04:27.688Z,87.62
2018-09-20T03:05:27.690Z,87.62
2018-09-20T03:06:27.690Z,87.62
2018-09-20T03:07:27.685Z,88.10
2018-09-20T03:08:27.681Z,87.82
2018-09-20T03:09:27.673Z,87.82
2018-09-20T03:10:27.671Z,87.53
2018-09-20T03:11:27.669Z,87.62
2018-09-20T03:12:27.667Z,87.82
2018-09-20T03:13:27.677Z,87.43
2018-09-20T03:14:27.664Z,87.62
2018-09-20T03:15:27.663Z,87.43
2018-09-20T03:16:27.660Z,87.62
2018-09-20T03:17:27.651Z,87.72
2018-09-20T03:18:27.650Z,87.53
2018-09-20T03:19:27.652Z,87.62
2018-09-20T03:20:27.649Z,87.43
2018-09-20T03:21:27.639Z,87.53
2018-09-20T03:22:27.637Z,87.62
2018-09-20T03:23:27.638Z,87.53
2018-09-20T03:24:27.631Z,87.62
2018-09-20T03:25:27.633Z,87.62
2018-09-20T03:26:27.636Z,87.34
2018-09-20T03:27:27.628Z,87.82
2018-09-20T03:28:27.626Z,88.59
2018-09-20T03:29:27.617Z,88.20
2018-09-20T03:30:27.625Z,88.30
2018-09-20T03:31:27.611Z,88.59
2018-09-20T03:32:27.612Z,88.30
2018-09-20T03:33:27.609Z,88.30
2018-09-20T03:34:27.606Z,88.30
2018-09-20T03:35:27.616Z,88.30
2018-09-20T03:36:27.596Z,88.06
2018-09-20T03:37:27.605Z,88.39
2018-09-20T03:38:27.594Z,88.35
2018-09-20T03:39:27.593Z,88.39
2018-09-20T03:40:27.589Z,88.06
2018-09-20T03:41:27.581Z,88.54
2018-09-20T03:42:27.579Z,88.10
2018-09-20T03:43:27.576Z,87.87
2018-09-20T03:44:27.574Z,87.92
2018-09-20T03:45:27.575Z,88.10
2018-09-20T03:46:27.571Z,88.25
2018-09-20T03:47:27.568Z,88.54
2018-09-20T03:48:27.566Z,88.35
2018-09-20T03:49:27.558Z,88.16
2018-09-20T03:50:27.554Z,88.83
2018-09-20T03:51:27.561Z,88.35
2018-09-20T03:52:27.553Z,89.02
2018-09-20T03:53:27.545Z,89.12
2018-09-20T03:54:27.542Z,88.93
2018-09-20T03:55:27.540Z,88.73
2018-09-20T03:56:27.538Z,88.54
2018-09-20T03:57:27.560Z,88.64
2018-09-20T03:58:27.536Z,88.25
2018-09-20T03:59:27.533Z,88.25
2018-09-20T04:00:27.530Z,88.25
2018-09-20T04:01:27.524Z,88.45
2018-09-20T04:02:27.520Z,88.16
2018-09-20T04:03:27.516Z,88.83
2018-09-20T04:04:27.512Z,89.22
2018-09-20T04:05:27.526Z,89.22
2018-09-20T04:06:27.514Z,89.40
2018-09-20T04:07:27.504Z,89.31
2018-09-20T04:08:27.502Z,89.40
2018-09-20T04:09:27.517Z,89.12
2018-09-20T04:10:27.500Z,89.02
2018-09-20T04:11:27.496Z,89.22
2018-09-20T04:12:27.495Z,89.12
2018-09-20T04:13:27.485Z,88.83
2018-09-20T04:14:27.483Z,88.93
2018-09-20T04:15:27.481Z,88.83
2018-09-20T04:16:27.482Z,88.73
2018-09-20T04:17:27.480Z,88.83
2018-09-20T04:18:27.476Z,89.69
2018-09-20T04:19:27.472Z,89.50
2018-09-20T04:20:27.472Z,89.31
2018-09-20T04:21:27.462Z,89.31
2018-09-20T04:22:27.458Z,89.50
2018-09-20T04:23:27.459Z,89.40
2018-09-20T04:24:27.458Z,89.60
2018-09-20T04:25:27.450Z,89.50
2018-09-20T04:26:27.446Z,89.60
2018-09-20T04:27:27.449Z,89.31
2018-09-20T04:28:27.442Z,89.50
2018-09-20T04:29:27.445Z,89.40
2018-09-20T04:30:27.440Z,89.60
2018-09-20T04:31:27.435Z,89.60
2018-09-20T04:32:27.433Z,89.50
2018-09-20T04:33:27.424Z,89.69
2018-09-20T04:34:27.423Z,89.69
2018-09-20T04:35:27.421Z,89.40
2018-09-20T04:36:27.418Z,89.40
2018-09-20T04:37:27.422Z,89.22
2018-09-20T04:38:27.417Z,89.22
2018-09-20T04:39:27.408Z,89.31
2018-09-20T04:40:27.406Z,89.40
2018-09-20T04:41:27.412Z,89.98
2018-09-20T04:42:27.405Z,89.69
2018-09-20T04:43:27.402Z,89.60
2018-09-20T04:44:27.400Z,89.60
2018-09-20T04:45:27.391Z,89.79
2018-09-20T04:46:27.389Z,89.79
2018-09-20T04:47:27.386Z,89.50
2018-09-20T04:48:27.382Z,89.60
2018-09-20T04:49:27.384Z,89.89
2018-09-20T04:50:27.380Z,89.60
2018-09-20T04:51:27.383Z,89.89
2018-09-20T04:52:27.375Z,89.50
2018-09-20T04:53:27.427Z,89.60
2018-09-20T04:54:27.364Z,89.69
2018-09-20T04:55:27.367Z,89.50
2018-09-20T04:56:27.364Z,89.60
2018-09-20T04:57:27.354Z,89.60
2018-09-20T04:58:27.355Z,89.69
2018-09-20T04:59:27.352Z,89.50
2018-09-20T05:00:27.347Z,89.50
2018-09-20T05:01:27.346Z,89.60
2018-09-20T05:02:27.344Z,89.50
2018-09-20T05:03:27.341Z,89.60
2018-09-20T05:04:27.340Z,89.60
2018-09-20T05:05:27.330Z,89.50
2018-09-20T05:06:27.327Z,89.79
2018-09-20T05:07:27.329Z,89.89
2018-09-20T05:08:27.321Z,90.08
2018-09-20T05:09:27.353Z,89.89
2018-09-20T05:10:27.322Z,89.98
2018-09-20T05:11:27.314Z,90.08
2018-09-20T05:12:27.311Z,90.37
2018-09-20T05:13:27.311Z,89.89
2018-09-20T05:14:27.315Z,90.27
2018-09-20T05:15:27.304Z,90.56
2018-09-20T05:16:27.302Z,89.98
2018-09-20T05:17:27.294Z,89.89
2018-09-20T05:18:27.289Z,90.37
2018-09-20T05:19:27.287Z,89.98
2018-09-20T05:20:27.286Z,90.17
2018-09-20T05:21:27.286Z,90.17
2018-09-20T05:22:27.282Z,90.08
2018-09-20T05:23:27.318Z,90.37
2018-09-20T05:24:27.277Z,90.17
2018-09-20T05:25:27.269Z,90.27
2018-09-20T05:26:27.268Z,90.08
2018-09-20T05:27:27.268Z,89.79
2018-09-20T05:28:27.268Z,90.08
2018-09-20T05:29:27.257Z,90.17
2018-09-20T05:30:27.254Z,90.27
2018-09-20T05:31:27.250Z,89.50
2018-09-20T05:32:27.247Z,89.79
2018-09-20T05:33:27.250Z,89.69
2018-09-20T05:34:27.244Z,89.79
2018-09-20T05:35:27.275Z,89.79
2018-09-20T05:36:27.241Z,89.50
2018-09-20T05:37:27.235Z,89.69
2018-09-20T05:38:27.232Z,89.50
2018-09-20T05:39:27.231Z,89.40
2018-09-20T05:40:27.224Z,89.54
2018-09-20T05:41:27.224Z,89.54
2018-09-20T05:42:27.223Z,88.87
2018-09-20T05:43:27.241Z,88.78
2018-09-20T05:44:27.213Z,88.24
2018-09-20T05:45:27.217Z,88.44
2018-09-20T05:46:27.210Z,87.62
2018-09-20T05:47:27.209Z,87.23
2018-09-20T05:48:27.206Z,86.60
2018-09-20T05:49:27.198Z,85.64
2018-09-20T05:50:27.199Z,85.25
2018-09-20T05:51:27.193Z,84.87
2018-09-20T05:52:27.191Z,84.83
2018-09-20T05:53:27.197Z,84.73
2018-09-20T05:54:27.191Z,85.40
2018-09-20T05:55:27.195Z,85.50
2018-09-20T05:56:27.185Z,85.60
2018-09-20T05:57:27.181Z,85.69
2018-09-20T05:58:27.176Z,86.04
2018-09-20T05:59:27.180Z,85.94
2018-09-20T06:00:27.177Z,86.61
2018-09-20T06:01:27.170Z,86.61
2018-09-20T06:02:27.168Z,86.61
2018-09-20T06:03:27.165Z,86.32
2018-09-20T06:04:27.164Z,86.99
2018-09-20T06:05:27.174Z,86.99
2018-09-20T06:06:27.164Z,87.09
2018-09-20T06:07:27.163Z,86.61
2018-09-20T06:08:27.161Z,86.56
2018-09-20T06:09:27.153Z,86.08
2018-09-20T06:10:27.151Z,85.64
2018-09-20T06:11:27.148Z,84.91
2018-09-20T06:12:27.145Z,84.43
2018-09-20T06:13:27.149Z,83.51
2018-09-20T06:14:27.145Z,82.87
2018-09-20T06:15:27.140Z,82.49
2018-09-20T06:16:27.140Z,81.72
2018-09-20T06:17:27.140Z,81.33
2018-09-20T06:18:27.139Z,81.04
2018-09-20T06:19:27.139Z,79.98
2018-09-20T06:20:27.138Z,80.27
2018-09-20T06:21:27.131Z,80.41
2018-09-20T06:22:27.129Z,79.89
2018-09-20T06:23:27.129Z,80.02
2018-09-20T06:24:27.129Z,79.64
2018-09-20T06:25:27.131Z,79.83
2018-09-20T06:26:27.130Z,80.26
2018-09-20T06:27:27.130Z,79.97
2018-09-20T06:28:27.129Z,78.81
2018-09-20T06:29:27.126Z,77.59
2018-09-20T06:30:27.124Z,76.95
2018-09-20T06:31:27.127Z,76.12
2018-09-20T06:32:27.125Z,74.81
2018-09-20T06:33:27.119Z,74.27
2018-09-20T06:34:27.119Z,72.85
2018-09-20T06:35:27.120Z,71.30
2018-09-20T06:36:27.120Z,70.24
2018-09-20T06:37:27.138Z,70.88
2018-09-20T06:38:27.125Z,70.68
2018-09-20T06:39:27.122Z,72.00
2018-09-20T06:40:27.121Z,72.55
2018-09-20T06:41:27.126Z,73.58
2018-09-20T06:42:27.128Z,74.21
2018-09-20T06:43:27.129Z,74.95
2018-09-20T06:44:27.130Z,76.59
2018-09-20T06:45:27.124Z,77.07
2018-09-20T06:46:27.125Z,77.46
2018-09-20T06:47:27.132Z,77.26
2018-09-20T06:48:27.133Z,77.84
2018-09-20T06:49:27.127Z,77.84
2018-09-20T06:50:27.210Z,77.59
2018-09-20T06:51:27.131Z,76.09
2018-09-20T06:52:27.131Z,75.16
2018-09-20T06:53:27.135Z,74.52
2018-09-20T06:54:27.136Z,73.65
2018-09-20T06:55:27.139Z,71.98
2018-09-20T06:56:27.191Z,71.14
2018-09-20T06:57:27.137Z,69.73
2018-09-20T06:58:27.139Z,68.85
2018-09-20T06:59:27.139Z,68.21
2018-09-20T07:00:27.141Z,67.47
2018-09-20T07:01:27.147Z,66.34
2018-09-20T07:02:27.150Z,65.40
2018-09-20T07:03:27.146Z,64.33
2018-09-20T07:04:27.149Z,63.91
2018-09-20T07:05:27.160Z,63.75
2018-09-20T07:06:27.160Z,63.23
2018-09-20T07:07:27.162Z,64.20
2018-09-20T07:08:27.166Z,64.17
2018-09-20T07:09:27.165Z,64.78
2018-09-20T07:10:27.169Z,64.23
2018-09-20T07:11:27.172Z,63.39
2018-09-20T07:12:27.176Z,62.74
2018-09-20T07:13:27.183Z,61.51
2018-09-20T07:14:27.187Z,60.08
2018-09-20T07:15:27.197Z,60.22
2018-09-20T07:16:27.197Z,60.08
2018-09-20T07:17:27.195Z,59.95
2018-09-20T07:18:27.200Z,60.05
2018-09-20T07:19:27.210Z,59.76
2018-09-20T07:20:27.218Z,60.22
2018-09-20T07:21:27.212Z,60.68
2018-09-20T07:22:27.218Z,60.19
2018-09-20T07:23:27.224Z,61.74
2018-09-20T07:24:27.232Z,62.10
2018-09-20T07:25:27.289Z,62.52
2018-09-20T07:26:27.244Z,62.23
2018-09-20T07:27:27.249Z,62.91
2018-09-20T07:28:27.253Z,64.04
2018-09-20T07:29:27.254Z,65.14
2018-09-20T07:30:27.261Z,64.40
2018-09-20T07:31:27.269Z,63.78
2018-09-20T07:32:27.274Z,62.36
2018-09-20T07:33:27.281Z,63.46
2018-09-20T07:34:27.287Z,64.27
2018-09-20T07:35:27.289Z,64.53
2018-09-20T07:36:27.295Z,63.49
2018-09-20T07:37:27.304Z,62.79
2018-09-20T07:38:27.310Z,64.33
2018-09-20T07:39:27.316Z,63.49
2018-09-20T07:40:27.321Z,62.81
2018-09-20T07:41:27.323Z,61.55
2018-09-20T07:42:27.329Z,62.16
2018-09-20T07:43:27.377Z,62.42
2018-09-20T07:44:27.341Z,62.07
2018-09-20T07:45:27.352Z,63.65
2018-09-20T07:46:27.357Z,64.17
2018-09-20T07:47:27.365Z,65.47
2018-09-20T07:48:27.369Z,66.50
2018-09-20T07:49:27.370Z,68.05
2018-09-20T07:50:27.376Z,67.95
2018-09-20T07:51:27.385Z,68.59
2018-09-20T07:52:27.393Z,69.17
2018-09-20T07:53:27.392Z,69.08
2018-09-20T07:54:27.397Z,69.08
2018-09-20T07:55:27.405Z,69.50
2018-09-20T07:56:27.408Z,69.11
2018-09-20T07:57:27.418Z,69.01
2018-09-20T07:58:27.427Z,68.82
2018-09-20T07:59:27.428Z,68.85
2018-09-20T08:00:27.432Z,68.27
2018-09-20T08:01:27.495Z,67.88
2018-09-20T08:02:27.434Z,68.56
2018-09-20T08:03:27.443Z,68.37
2018-09-20T08:04:27.443Z,68.15
2018-09-20T08:05:27.452Z,68.05
2018-09-20T08:06:27.456Z,68.08
2018-09-20T08:07:27.455Z,67.82
2018-09-20T08:08:27.461Z,66.60
2018-09-20T08:09:27.468Z,65.56
2018-09-20T08:10:27.474Z,64.11
2018-09-20T08:11:27.477Z,62.81
2018-09-20T08:12:27.482Z,61.90
2018-09-20T08:13:27.480Z,60.41
2018-09-20T08:14:27.486Z,59.53
2018-09-20T08:15:27.490Z,59.14
2018-09-20T08:16:27.494Z,58.89
2018-09-20T08:17:27.507Z,59.64
2018-09-20T08:18:27.509Z,60.35
2018-09-20T08:19:27.514Z,59.63
2018-09-20T08:20:27.522Z,58.39
2018-09-20T08:21:27.571Z,57.97
2018-09-20T08:22:27.523Z,57.50
2018-09-20T08:23:27.535Z,55.68
2018-09-20T08:24:27.540Z,53.71
2018-09-20T08:25:27.542Z,52.76
2018-09-20T08:26:27.547Z,51.71
2018-09-20T08:27:27.556Z,51.44
2018-09-20T08:28:27.561Z,50.59
2018-09-20T08:29:27.574Z,50.12
2018-09-20T08:30:27.581Z,48.65
2018-09-20T08:31:27.587Z,48.46
2018-09-20T08:32:27.593Z,48.26
2018-09-20T08:33:27.594Z,48.24
2018-09-20T08:34:27.603Z,48.30
2018-09-20T08:35:27.612Z,47.13
2018-09-20T08:36:27.632Z,47.16
2018-09-20T08:37:27.699Z,46.78
2018-09-20T08:38:27.641Z,45.51
2018-09-20T08:39:27.646Z,44.69
2018-09-20T08:40:27.655Z,44.54
2018-09-20T08:41:27.668Z,43.38
2018-09-20T08:42:27.677Z,43.22
2018-09-20T08:43:27.690Z,43.26
2018-09-20T08:44:27.700Z,44.47
2018-09-20T08:45:27.703Z,43.73
2018-09-20T08:46:27.714Z,46.75
2018-09-20T08:47:27.726Z,48.31
2018-09-20T08:48:27.736Z,48.24
2018-09-20T08:49:27.750Z,48.60
2018-09-20T08:50:27.761Z,48.31
2018-09-20T08:51:27.774Z,48.04
2018-09-20T08:52:27.783Z,47.23
2018-09-20T08:53:27.789Z,47.03
2018-09-20T08:54:27.801Z,46.74
2018-09-20T08:55:27.817Z,45.59
2018-09-20T08:56:27.828Z,45.68
2018-09-20T08:57:27.833Z,44.90
2018-09-20T08:58:27.846Z,44.92
2018-09-20T08:59:27.858Z,45.21
2018-09-20T09:00:27.871Z,45.49
2018-09-20T09:01:27.886Z,45.07
2018-09-20T09:02:27.898Z,45.73
2018-09-20T09:03:27.911Z,46.64
2018-09-20T09:04:27.975Z,45.95
2018-09-20T09:05:27.931Z,46.25
2018-09-20T09:06:27.943Z,45.89
2018-09-20T09:07:27.958Z,46.69
2018-09-20T09:08:27.968Z,46.64
2018-09-20T09:09:27.985Z,46.00
2018-09-20T09:10:27.998Z,44.84
2018-09-20T09:11:28.004Z,43.74
2018-09-20T09:12:28.019Z,43.92
2018-09-20T09:13:28.036Z,44.04
2018-09-20T09:14:28.047Z,44.23
2018-09-20T09:15:28.059Z,44.06
2018-09-20T09:16:28.073Z,43.00
2018-09-20T09:17:28.079Z,43.15
2018-09-20T09:18:28.097Z,43.55
2018-09-20T09:19:28.107Z,43.92
2018-09-20T09:20:28.119Z,44.08
2018-09-20T09:21:28.141Z,43.49
2018-09-20T09:22:28.149Z,42.74
2018-09-20T09:23:28.163Z,43.72
2018-09-20T09:24:28.176Z,44.45
2018-09-20T09:25:28.236Z,43.71
2018-09-20T09:26:28.197Z,43.29
2018-09-20T09:27:28.214Z,43.35
2018-09-20T09:28:28.283Z,44.17
2018-09-20T09:29:28.236Z,45.37
2018-09-20T09:30:28.248Z,47.11
2018-09-20T09:31:28.264Z,47.58
2018-09-20T09:32:28.275Z,48.31
2018-09-20T09:33:28.290Z,48.70
2018-09-20T09:34:28.302Z,47.82
2018-09-20T09:35:28.314Z,47.69
2018-09-20T09:36:28.325Z,46.76
2018-09-20T09:37:28.330Z,45.70
2018-09-20T09:38:28.342Z,44.51
2018-09-20T09:39:28.356Z,45.29
2018-09-20T09:40:28.368Z,45.12
2018-09-20T09:41:28.391Z,45.05
2018-09-20T09:42:28.393Z,45.52
2018-09-20T09:43:28.403Z,45.86
2018-09-20T09:44:28.414Z,45.49
2018-09-20T09:45:28.427Z,45.19
2018-09-20T09:46:28.438Z,44.27
2018-09-20T09:47:28.449Z,43.53
2018-09-20T09:48:28.463Z,42.41
2018-09-20T09:49:28.466Z,42.74
2018-09-20T09:50:28.480Z,44.05
2018-09-20T09:51:28.489Z,44.44
2018-09-20T09:52:28.504Z,45.54
2018-09-20T09:53:28.516Z,45.27
2018-09-20T09:54:28.548Z,45.02
2018-09-20T09:55:28.538Z,44.27
2018-09-20T09:56:28.551Z,44.16
2018-09-20T09:57:28.557Z,43.37
2018-09-20T09:58:28.570Z,43.27
2018-09-20T09:59:28.583Z,42.92
2018-09-20T10:00:28.597Z,42.38
2018-09-20T10:01:28.600Z,41.16
2018-09-20T10:02:28.666Z,39.89
2018-09-20T10:03:28.622Z,39.32
2018-09-20T10:04:28.634Z,38.62
2018-09-20T10:05:28.649Z,37.73
2018-09-20T10:06:28.661Z,37.65
2018-09-20T10:07:28.691Z,37.57
2018-09-20T10:08:28.685Z,37.39
2018-09-20T10:09:28.694Z,37.02
2018-09-20T10:10:28.705Z,37.49
2018-09-20T10:11:28.716Z,38.70
2018-09-20T10:12:28.731Z,39.43
2018-09-20T10:13:28.769Z,40.68
2018-09-20T10:14:28.757Z,41.61
2018-09-20T10:15:28.765Z,41.72
2018-09-20T10:16:28.777Z,41.25
2018-09-20T10:17:28.792Z,40.86
2018-09-20T10:18:28.806Z,41.06
2018-09-20T10:19:28.821Z,40.90
2018-09-20T10:20:28.831Z,40.64
2018-09-20T10:21:28.837Z,40.84
2018-09-20T10:22:28.850Z,40.86
2018-09-20T10:23:28.861Z,40.47
2018-09-20T10:24:28.874Z,40.08
2018-09-20T10:25:28.890Z,39.62
2018-09-20T10:26:28.903Z,41.03
2018-09-20T10:27:28.914Z,42.13
2018-09-20T10:28:28.925Z,42.43
2018-09-20T10:29:28.933Z,42.84
2018-09-20T10:30:28.946Z,42.55
2018-09-20T10:31:28.984Z,42.82
2018-09-20T10:32:28.974Z,43.05
2018-09-20T10:33:28.981Z,42.29
2018-09-20T10:34:28.993Z,41.51
2018-09-20T10:35:29.004Z,41.00
2018-09-20T10:36:29.017Z,41.37
2018-09-20T10:37:29.033Z,41.66
2018-09-20T10:38:29.044Z,41.86
2018-09-20T10:39:29.056Z,41.72
2018-09-20T10:40:29.068Z,42.97
2018-09-20T10:41:29.075Z,43.31
2018-09-20T10:42:29.087Z,42.65
2018-09-20T10:43:29.098Z,43.02
2018-09-20T10:44:29.109Z,42.94
2018-09-20T10:45:29.124Z,42.47
2018-09-20T10:46:29.137Z,41.71
2018-09-20T10:47:29.144Z,41.41
2018-09-20T10:48:29.155Z,41.86
2018-09-20T10:49:29.170Z,42.02
2018-09-20T10:50:29.182Z,42.60
2018-09-20T10:51:29.216Z,43.48
2018-09-20T10:52:29.218Z,43.27
2018-09-20T10:53:29.212Z,43.19
2018-09-20T10:54:29.251Z,43.20
2018-09-20T10:55:29.234Z,44.16
2018-09-20T10:56:29.244Z,43.59
2018-09-20T10:57:29.259Z,43.99
2018-09-20T10:58:29.270Z,43.91
2018-09-20T10:59:29.280Z,44.13
2018-09-20T11:00:29.290Z,43.56
2018-09-20T11:01:29.296Z,42.97
2018-09-20T11:02:29.310Z,42.90
2018-09-20T11:03:29.399Z,42.66
2018-09-20T11:04:29.334Z,42.27
2018-09-20T11:05:29.337Z,41.78
2018-09-20T11:06:29.348Z,41.51
2018-09-20T11:07:29.359Z,40.64
2018-09-20T11:08:29.371Z,40.29
2018-09-20T11:09:29.386Z,38.85
2018-09-20T11:10:29.426Z,40.11
2018-09-20T11:11:29.409Z,40.48
2018-09-20T11:12:29.421Z,40.95
2018-09-20T11:13:29.427Z,41.52
2018-09-20T11:14:29.438Z,42.09
2018-09-20T11:15:29.452Z,42.23
2018-09-20T11:16:29.462Z,41.76
2018-09-20T11:17:29.474Z,41.47
2018-09-20T11:18:29.486Z,41.64
2018-09-20T11:19:29.492Z,42.11
2018-09-20T11:20:29.504Z,42.41
2018-09-20T11:21:29.517Z,42.80
2018-09-20T11:22:29.529Z,42.99
2018-09-20T11:23:29.540Z,43.46
2018-09-20T11:24:29.550Z,43.76
2018-09-20T11:25:29.554Z,44.15
2018-09-20T11:26:29.565Z,43.73
2018-09-20T11:27:29.576Z,44.01
2018-09-20T11:28:29.584Z,44.28
2018-09-20T11:29:29.598Z,45.26
2018-09-20T11:30:29.607Z,44.67
2018-09-20T11:31:29.614Z,44.87
2018-09-20T11:32:29.624Z,44.94
2018-09-20T11:33:29.626Z,45.31
2018-09-20T11:34:29.634Z,45.78
2018-09-20T11:35:29.648Z,46.34
2018-09-20T11:36:29.656Z,47.53
2018-09-20T11:37:29.663Z,47.83
2018-09-20T11:38:29.665Z,48.51
2018-09-20T11:39:29.672Z,48.32
2018-09-20T11:40:29.681Z,48.14
2018-09-20T11:41:29.692Z,48.24
2018-09-20T11:42:29.698Z,47.05
2018-09-20T11:43:29.705Z,47.17
2018-09-20T11:44:29.712Z,47.14
2018-09-20T11:45:29.713Z,47.05
2018-09-20T11:46:29.765Z,47.53
2018-09-20T11:47:29.726Z,47.53
2018-09-20T11:48:29.733Z,47.31
2018-09-20T11:49:29.741Z,47.61
2018-09-20T11:50:29.749Z,47.80
2018-09-20T11:51:29.751Z,48.39
2018-09-20T11:52:29.757Z,48.05
2018-09-20T11:53:29.766Z,48.66
2018-09-20T11:54:29.771Z,49.05
2018-09-20T11:55:29.779Z,49.34
2018-09-20T11:56:29.784Z,49.44
2018-09-20T11:57:29.784Z,49.17
2018-09-20T11:58:29.789Z,48.97
2018-09-20T11:59:29.798Z,48.39
2018-09-20T12:00:29.801Z,48.29
2018-09-20T12:01:29.810Z,48.02
2018-09-20T12:02:29.814Z,47.34
2018-09-20T12:03:29.821Z,47.14
2018-09-20T12:04:29.827Z,46.85
2018-09-20T12:05:29.827Z,47.24
2018-09-20T12:06:29.832Z,47.14
2018-09-20T12:07:29.845Z,46.92
2018-09-20T12:08:29.847Z,47.02
2018-09-20T12:09:29.846Z,47.22
2018-09-20T12:10:29.852Z,47.90
2018-09-20T12:11:29.857Z,47.71
2018-09-20T12:12:29.862Z,48.39
2018-09-20T12:13:29.869Z,48.32
2018-09-20T12:14:29.934Z,48.19
2018-09-20T12:15:29.881Z,48.49
2018-09-20T12:16:29.885Z,48.46
2018-09-20T12:17:29.891Z,48.56
2018-09-20T12:18:29.889Z,48.85
2018-09-20T12:19:29.894Z,48.56
2018-09-20T12:20:29.899Z,48.93
2018-09-20T12:21:29.908Z,48.14
2018-09-20T12:22:29.912Z,48.44
2018-09-20T12:23:29.912Z,48.93
2018-09-20T12:24:29.919Z,48.93
2018-09-20T12:25:29.928Z,49.12
2018-09-20T12:26:29.931Z,49.51
2018-09-20T12:27:29.939Z,49.29
2018-09-20T12:28:29.942Z,49.41
2018-09-20T12:29:29.937Z,49.58
2018-09-20T12:30:29.944Z,49.07
2018-09-20T12:31:29.970Z,49.76
2018-09-20T12:32:29.953Z,49.34
2018-09-20T12:33:29.960Z,49.92
2018-09-20T12:34:29.965Z,50.02
2018-09-20T12:35:30.101Z,51.09
2018-09-20T12:36:29.975Z,50.87
2018-09-20T12:37:29.972Z,51.07
2018-09-20T12:38:29.977Z,50.78
2018-09-20T12:39:29.986Z,50.48
2018-09-20T12:40:29.989Z,50.99
2018-09-20T12:41:29.988Z,50.80
2018-09-20T12:42:29.993Z,50.80
2018-09-20T12:43:29.995Z,50.70
2018-09-20T12:44:30.001Z,50.80
2018-09-20T12:45:30.012Z,50.82
2018-09-20T12:46:30.013Z,50.73
2018-09-20T12:47:30.027Z,50.82
2018-09-20T12:48:30.019Z,50.24
2018-09-20T12:49:30.019Z,50.63
2018-09-20T12:50:30.025Z,50.73
2018-09-20T12:51:30.024Z,50.60
2018-09-20T12:52:30.028Z,50.90
2018-09-20T12:53:30.036Z,50.80